Wylde Swan — PIWS — position and weather

sailwx.info

Track history (hours):
 
Tides and Currents Weather Stations Pressure Air Temp Water Temp Dewpoint Dewpoint Depression Visibility Wind Speed Wind Dir Waves Ship Positions

Wylde Swan

Last reported at 2017-Jan-11 08:17 UTC. Time now 2017-Jan-24 19:20 UTC.
Position N 16°12' W 062°45'.
Warning: this ship's position is 13 days out of date.

Length 45 m; draft 3.3 m.

Type: Sailing vessel. MMSI: 244074000.

Date/timePositionNaut miles runAvg speedWind from/ knotsBaromVisibWave heightAir tempDewpointWater temp
2017-Jan-11 08:17N 16°12' W 062°45'161 4.9
2017-Jan-09 23:30N 18°27' W 064°16'7 3.8
2017-Jan-09 21:32N 18°31' W 064°23'13 5.2
2017-Jan-09 19:03N 18°28' W 064°36'3 5.5
2017-Jan-09 18:33N 18°27' W 064°39'4 3.4
2017-Jan-09 17:27N 18°26' W 064°43'0 0.0
2017-Jan-09 16:33N 18°26' W 064°43'0 0.0
2017-Jan-09 15:33N 18°26' W 064°43'0 0.0
2017-Jan-09 14:33N 18°26' W 064°43'0 0.0
2017-Jan-09 13:27N 18°26' W 064°43'1 0.8
2017-Jan-09 12:24N 18°27' W 064°43'0 0.0
2017-Jan-09 11:30N 18°27' W 064°43'0 0.0
2017-Jan-09 10:30N 18°27' W 064°43'0 0.0
2017-Jan-09 09:24N 18°27' W 064°43'0 0.0
2017-Jan-09 08:24N 18°27' W 064°43'0 0.0
2017-Jan-09 07:30N 18°27' W 064°43'0 0.0
2017-Jan-09 06:30N 18°27' W 064°43'0 0.0
2017-Jan-09 05:24N 18°27' W 064°43'0 0.0
2017-Jan-09 04:24N 18°27' W 064°43'0 0.0
2017-Jan-09 03:24N 18°27' W 064°43'0 0.0
2017-Jan-09 02:30N 18°27' W 064°43'0 0.0
2017-Jan-09 01:30N 18°27' W 064°43'0 0.0
2017-Jan-09 00:30N 18°27' W 064°43'0 0.0
2017-Jan-08 23:30N 18°27' W 064°43'0 0.0
2017-Jan-08 22:06N 18°27' W 064°43'0 0.0
2017-Jan-08 21:30N 18°27' W 064°43'0 0.1
2017-Jan-08 20:30N 18°27' W 064°43'0 0.0
2017-Jan-08 19:24N 18°27' W 064°43'0 0.0
2017-Jan-08 18:18N 18°27' W 064°43'0 0.0
2017-Jan-08 17:18N 18°27' W 064°43'1 1.3
2017-Jan-08 16:33N 18°26' W 064°43'2 1.4
2017-Jan-08 15:24N 18°26' W 064°45'0 0.0
2017-Jan-08 14:30N 18°26' W 064°45'0 0.0
2017-Jan-08 13:30N 18°26' W 064°45'0 0.0
2017-Jan-08 12:30N 18°26' W 064°45'0 0.0
2017-Jan-08 11:30N 18°26' W 064°45'0 0.0
2017-Jan-08 10:24N 18°26' W 064°45'0 0.0
2017-Jan-08 09:30N 18°26' W 064°45'0 0.0
2017-Jan-08 08:24N 18°26' W 064°45'0 0.0
2017-Jan-08 07:30N 18°26' W 064°45'0 0.0
2017-Jan-08 06:24N 18°26' W 064°45'0 0.0
2017-Jan-08 05:30N 18°26' W 064°45'0 0.0
2017-Jan-08 04:30N 18°26' W 064°45'0 0.0
2017-Jan-08 03:30N 18°26' W 064°45'0 0.0
2017-Jan-08 02:18N 18°26' W 064°45'0 0.0
2017-Jan-08 01:24N 18°26' W 064°45'0 0.0
2017-Jan-08 00:30N 18°26' W 064°45'0 0.0
2017-Jan-07 23:30N 18°26' W 064°45'0 0.0
2017-Jan-07 22:30N 18°26' W 064°45'0 0.0
2017-Jan-07 21:30N 18°26' W 064°45'0 0.0
2017-Jan-07 20:30N 18°26' W 064°45'0 0.0
2017-Jan-07 19:06N 18°26' W 064°45'0 0.0
2017-Jan-07 18:30N 18°26' W 064°45'0 0.0
2017-Jan-07 17:24N 18°26' W 064°45'2 2.7
2017-Jan-07 16:32N 18°24' W 064°44'6 6.1
2017-Jan-07 15:33N 18°23' W 064°37'2 0.1
2017-Jan-06 19:09N 18°25' W 064°36'1 1.6
2017-Jan-06 18:29N 18°26' W 064°37'0 0.0
2017-Jan-06 17:31N 18°26' W 064°37'2 1.0
2017-Jan-06 15:33N 18°24' W 064°35'4 3.7
2017-Jan-06 14:33N 18°25' W 064°32'5 1.2
2017-Jan-06 10:30N 18°27' W 064°27'0 0.0
2017-Jan-06 09:24N 18°27' W 064°27'0 0.0
2017-Jan-06 08:24N 18°27' W 064°27'0 0.0
2017-Jan-06 07:24N 18°27' W 064°27'0 0.0
2017-Jan-06 06:30N 18°27' W 064°27'0 0.0
2017-Jan-06 05:18N 18°27' W 064°27'0 0.0
2017-Jan-06 04:24N 18°27' W 064°27'0 0.0
2017-Jan-06 01:12N 18°27' W 064°27'0 0.0
2017-Jan-06 00:30N 18°27' W 064°27'0 0.0
2017-Jan-05 23:24N 18°27' W 064°27'0 0.0
2017-Jan-05 22:24N 18°27' W 064°27'3 0.3
2017-Jan-05 14:33N 18°25' W 064°28'4 4.1
2017-Jan-05 13:33N 18°23' W 064°24'54 5.3
2017-Jan-05 03:31N 18°11' W 063°29'5 5.6
2017-Jan-05 02:33N 18°10' W 063°24'6 5.7
2017-Jan-05 01:32N 18°08' W 063°18'5 4.5
2017-Jan-05 00:31N 18°07' W 063°13'3 3.4
2017-Jan-04 23:33N 18°06' W 063°10'2 2.1
2017-Jan-04 22:31N 18°05' W 063°08'2 2.0
2017-Jan-04 21:29N 18°04' W 063°06'0 0.0
2017-Jan-04 20:32N 18°04' W 063°06'0 0.0
2017-Jan-04 19:32N 18°04' W 063°06'0 0.0
2017-Jan-04 18:32N 18°04' W 063°06'0 0.0
2017-Jan-04 17:32N 18°04' W 063°06'0 0.0
2017-Jan-04 16:32N 18°04' W 063°06'0 0.0
2017-Jan-04 15:32N 18°04' W 063°06'0 0.0
2017-Jan-04 14:23N 18°04' W 063°06'0 0.0
2017-Jan-04 13:11N 18°04' W 063°06'0 0.0
2017-Jan-04 12:26N 18°04' W 063°06'0 0.0
2017-Jan-04 11:26N 18°04' W 063°06'0 0.0
2017-Jan-04 10:26N 18°04' W 063°06'0 0.0
2017-Jan-04 09:29N 18°04' W 063°06'0 0.0
2017-Jan-04 08:29N 18°04' W 063°06'0 0.0
2017-Jan-04 07:29N 18°04' W 063°06'0 0.0
2017-Jan-04 06:32N 18°04' W 063°06'0 0.0
2017-Jan-04 05:32N 18°04' W 063°06'0 0.0
2017-Jan-04 04:32N 18°04' W 063°06'0 0.0
2017-Jan-04 03:32N 18°04' W 063°06'0 0.0
2017-Jan-04 02:28N 18°04' W 063°06'0 0.0
2017-Jan-04 01:31N 18°04' W 063°06'0 0.0
2017-Jan-04 00:31N 18°04' W 063°06'0 0.0
2017-Jan-03 23:31N 18°04' W 063°06'0 0.0
2017-Jan-03 22:28N 18°04' W 063°06'0 0.0
2017-Jan-03 21:31N 18°04' W 063°06'0 0.0
2017-Jan-03 20:22N 18°04' W 063°06'0 0.0
2017-Jan-03 19:31N 18°04' W 063°06'0 0.0
2017-Jan-03 18:23N 18°04' W 063°06'0 0.0
2017-Jan-03 17:25N 18°04' W 063°06'0 0.0
2017-Jan-03 16:26N 18°04' W 063°06'0 0.0
2017-Jan-03 15:25N 18°04' W 063°06'0 0.0
2017-Jan-03 14:28N 18°04' W 063°06'0 0.0
2017-Jan-03 13:28N 18°04' W 063°06'0 0.0
2017-Jan-03 12:28N 18°04' W 063°06'0 0.0
2017-Jan-03 11:32N 18°04' W 063°06'0 0.0
2017-Jan-03 10:31N 18°04' W 063°06'0 0.0
2017-Jan-03 09:31N 18°04' W 063°06'0 0.0
2017-Jan-03 08:31N 18°04' W 063°06'0 0.0
2017-Jan-03 07:16N 18°04' W 063°06'0 0.0
2017-Jan-03 06:31N 18°04' W 063°06'0 0.0
2017-Jan-03 05:31N 18°04' W 063°06'0 0.0
2017-Jan-03 04:23N 18°04' W 063°06'0 0.0
2017-Jan-03 03:25N 18°04' W 063°06'0 0.0
2017-Jan-03 02:26N 18°04' W 063°06'0 0.0
2017-Jan-03 01:25N 18°04' W 063°06'0 0.0
2017-Jan-03 00:28N 18°04' W 063°06'0 0.0
2017-Jan-02 22:16N 18°04' W 063°06'1 1.5
2017-Jan-02 21:33N 18°05' W 063°06'  
Track history (hours):
 
Tides and Currents Weather Stations Pressure Air Temp Water Temp Dewpoint Dewpoint Depression Visibility Wind Speed Wind Dir Waves Ship Positions

Wylde Swan

Last reported at 2017-Jan-11 08:17 UTC. Time now 2017-Jan-24 19:20 UTC.
Position N 16°12' W 062°45'.
Warning: this ship's position is 13 days out of date.

Length 45 m; draft 3.3 m.

Type: Sailing vessel. MMSI: 244074000.

Date/timePositionNaut miles runAvg speedWind from/ knotsBaromVisibWave heightAir tempDewpointWater temp
2017-Jan-11 08:17N 16°12' W 062°45'161 4.9
2017-Jan-09 23:30N 18°27' W 064°16'7 3.8
2017-Jan-09 21:32N 18°31' W 064°23'13 5.2
2017-Jan-09 19:03N 18°28' W 064°36'3 5.5
2017-Jan-09 18:33N 18°27' W 064°39'4 3.4
2017-Jan-09 17:27N 18°26' W 064°43'0 0.0
2017-Jan-09 16:33N 18°26' W 064°43'0 0.0
2017-Jan-09 15:33N 18°26' W 064°43'0 0.0
2017-Jan-09 14:33N 18°26' W 064°43'0 0.0
2017-Jan-09 13:27N 18°26' W 064°43'1 0.8
2017-Jan-09 12:24N 18°27' W 064°43'0 0.0
2017-Jan-09 11:30N 18°27' W 064°43'0 0.0
2017-Jan-09 10:30N 18°27' W 064°43'0 0.0
2017-Jan-09 09:24N 18°27' W 064°43'0 0.0
2017-Jan-09 08:24N 18°27' W 064°43'0 0.0
2017-Jan-09 07:30N 18°27' W 064°43'0 0.0
2017-Jan-09 06:30N 18°27' W 064°43'0 0.0
2017-Jan-09 05:24N 18°27' W 064°43'0 0.0
2017-Jan-09 04:24N 18°27' W 064°43'0 0.0
2017-Jan-09 03:24N 18°27' W 064°43'0 0.0
2017-Jan-09 02:30N 18°27' W 064°43'0 0.0
2017-Jan-09 01:30N 18°27' W 064°43'0 0.0
2017-Jan-09 00:30N 18°27' W 064°43'0 0.0
2017-Jan-08 23:30N 18°27' W 064°43'0 0.0
2017-Jan-08 22:06N 18°27' W 064°43'0 0.0
2017-Jan-08 21:30N 18°27' W 064°43'0 0.1
2017-Jan-08 20:30N 18°27' W 064°43'0 0.0
2017-Jan-08 19:24N 18°27' W 064°43'0 0.0
2017-Jan-08 18:18N 18°27' W 064°43'0 0.0
2017-Jan-08 17:18N 18°27' W 064°43'1 1.3
2017-Jan-08 16:33N 18°26' W 064°43'2 1.4
2017-Jan-08 15:24N 18°26' W 064°45'0 0.0
2017-Jan-08 14:30N 18°26' W 064°45'0 0.0
2017-Jan-08 13:30N 18°26' W 064°45'0 0.0
2017-Jan-08 12:30N 18°26' W 064°45'0 0.0
2017-Jan-08 11:30N 18°26' W 064°45'0 0.0
2017-Jan-08 10:24N 18°26' W 064°45'0 0.0
2017-Jan-08 09:30N 18°26' W 064°45'0 0.0
2017-Jan-08 08:24N 18°26' W 064°45'0 0.0
2017-Jan-08 07:30N 18°26' W 064°45'0 0.0
2017-Jan-08 06:24N 18°26' W 064°45'0 0.0
2017-Jan-08 05:30N 18°26' W 064°45'0 0.0
2017-Jan-08 04:30N 18°26' W 064°45'0 0.0
2017-Jan-08 03:30N 18°26' W 064°45'0 0.0
2017-Jan-08 02:18N 18°26' W 064°45'0 0.0
2017-Jan-08 01:24N 18°26' W 064°45'0 0.0
2017-Jan-08 00:30N 18°26' W 064°45'0 0.0
2017-Jan-07 23:30N 18°26' W 064°45'0 0.0
2017-Jan-07 22:30N 18°26' W 064°45'0 0.0
2017-Jan-07 21:30N 18°26' W 064°45'0 0.0
2017-Jan-07 20:30N 18°26' W 064°45'0 0.0
2017-Jan-07 19:06N 18°26' W 064°45'0 0.0
2017-Jan-07 18:30N 18°26' W 064°45'0 0.0
2017-Jan-07 17:24N 18°26' W 064°45'2 2.7
2017-Jan-07 16:32N 18°24' W 064°44'6 6.1
2017-Jan-07 15:33N 18°23' W 064°37'2 0.1
2017-Jan-06 19:09N 18°25' W 064°36'1 1.6
2017-Jan-06 18:29N 18°26' W 064°37'0 0.0
2017-Jan-06 17:31N 18°26' W 064°37'2 1.0
2017-Jan-06 15:33N 18°24' W 064°35'4 3.7
2017-Jan-06 14:33N 18°25' W 064°32'5 1.2
2017-Jan-06 10:30N 18°27' W 064°27'0 0.0
2017-Jan-06 09:24N 18°27' W 064°27'0 0.0
2017-Jan-06 08:24N 18°27' W 064°27'0 0.0
2017-Jan-06 07:24N 18°27' W 064°27'0 0.0
2017-Jan-06 06:30N 18°27' W 064°27'0 0.0
2017-Jan-06 05:18N 18°27' W 064°27'0 0.0
2017-Jan-06 04:24N 18°27' W 064°27'0 0.0
2017-Jan-06 01:12N 18°27' W 064°27'0 0.0
2017-Jan-06 00:30N 18°27' W 064°27'0 0.0
2017-Jan-05 23:24N 18°27' W 064°27'0 0.0
2017-Jan-05 22:24N 18°27' W 064°27'3 0.3
2017-Jan-05 14:33N 18°25' W 064°28'4 4.1
2017-Jan-05 13:33N 18°23' W 064°24'54 5.3
2017-Jan-05 03:31N 18°11' W 063°29'5 5.6
2017-Jan-05 02:33N 18°10' W 063°24'6 5.7
2017-Jan-05 01:32N 18°08' W 063°18'5 4.5
2017-Jan-05 00:31N 18°07' W 063°13'3 3.4
2017-Jan-04 23:33N 18°06' W 063°10'2 2.1
2017-Jan-04 22:31N 18°05' W 063°08'2 2.0
2017-Jan-04 21:29N 18°04' W 063°06'0 0.0
2017-Jan-04 20:32N 18°04' W 063°06'0 0.0
2017-Jan-04 19:32N 18°04' W 063°06'0 0.0
2017-Jan-04 18:32N 18°04' W 063°06'0 0.0
2017-Jan-04 17:32N 18°04' W 063°06'0 0.0
2017-Jan-04 16:32N 18°04' W 063°06'0 0.0
2017-Jan-04 15:32N 18°04' W 063°06'0 0.0
2017-Jan-04 14:23N 18°04' W 063°06'0 0.0
2017-Jan-04 13:11N 18°04' W 063°06'0 0.0
2017-Jan-04 12:26N 18°04' W 063°06'0 0.0
2017-Jan-04 11:26N 18°04' W 063°06'0 0.0
2017-Jan-04 10:26N 18°04' W 063°06'0 0.0
2017-Jan-04 09:29N 18°04' W 063°06'0 0.0
2017-Jan-04 08:29N 18°04' W 063°06'0 0.0
2017-Jan-04 07:29N 18°04' W 063°06'0 0.0
2017-Jan-04 06:32N 18°04' W 063°06'0 0.0
2017-Jan-04 05:32N 18°04' W 063°06'0 0.0
2017-Jan-04 04:32N 18°04' W 063°06'0 0.0
2017-Jan-04 03:32N 18°04' W 063°06'0 0.0
2017-Jan-04 02:28N 18°04' W 063°06'0 0.0
2017-Jan-04 01:31N 18°04' W 063°06'0 0.0
2017-Jan-04 00:31N 18°04' W 063°06'0 0.0
2017-Jan-03 23:31N 18°04' W 063°06'0 0.0
2017-Jan-03 22:28N 18°04' W 063°06'0 0.0
2017-Jan-03 21:31N 18°04' W 063°06'0 0.0
2017-Jan-03 20:22N 18°04' W 063°06'0 0.0
2017-Jan-03 19:31N 18°04' W 063°06'0 0.0
2017-Jan-03 18:23N 18°04' W 063°06'0 0.0
2017-Jan-03 17:25N 18°04' W 063°06'0 0.0
2017-Jan-03 16:26N 18°04' W 063°06'0 0.0
2017-Jan-03 15:25N 18°04' W 063°06'0 0.0
2017-Jan-03 14:28N 18°04' W 063°06'0 0.0
2017-Jan-03 13:28N 18°04' W 063°06'0 0.0
2017-Jan-03 12:28N 18°04' W 063°06'0 0.0
2017-Jan-03 11:32N 18°04' W 063°06'0 0.0
2017-Jan-03 10:31N 18°04' W 063°06'0 0.0
2017-Jan-03 09:31N 18°04' W 063°06'0 0.0
2017-Jan-03 08:31N 18°04' W 063°06'0 0.0
2017-Jan-03 07:16N 18°04' W 063°06'0 0.0
2017-Jan-03 06:31N 18°04' W 063°06'0 0.0
2017-Jan-03 05:31N 18°04' W 063°06'0 0.0
2017-Jan-03 04:23N 18°04' W 063°06'0 0.0
2017-Jan-03 03:25N 18°04' W 063°06'0 0.0
2017-Jan-03 02:26N 18°04' W 063°06'0 0.0
2017-Jan-03 01:25N 18°04' W 063°06'0 0.0
2017-Jan-03 00:28N 18°04' W 063°06'0 0.0
2017-Jan-02 22:16N 18°04' W 063°06'1 1.5
2017-Jan-02 21:33N 18°05' W 063°06'  

Dump ship's entire track history